createdAt,value
2023-08-27T00:00:23.458Z,1.30
2023-08-27T00:02:50.540Z,1.67
2023-08-27T00:05:17.525Z,1.63
2023-08-27T00:07:44.667Z,1.25
2023-08-27T00:10:12.070Z,1.20
2023-08-27T00:12:40.725Z,1.30
2023-08-27T00:15:08.369Z,1.20
2023-08-27T00:17:36.371Z,1.67
2023-08-27T00:20:05.896Z,1.58
2023-08-27T00:22:32.875Z,1.73
2023-08-27T00:24:59.850Z,1.30
2023-08-27T00:27:27.124Z,1.65
2023-08-27T00:29:54.027Z,1.80
2023-08-27T00:32:25.865Z,1.38
2023-08-27T00:34:53.814Z,1.98
2023-08-27T00:37:23.343Z,1.25
2023-08-27T00:39:50.636Z,1.30
2023-08-27T00:42:17.597Z,1.80
2023-08-27T00:44:44.637Z,1.75
2023-08-27T00:47:13.851Z,1.50
2023-08-27T00:49:41.099Z,1.60
2023-08-27T00:52:10.147Z,1.48
2023-08-27T00:54:39.056Z,1.45
2023-08-27T00:57:07.764Z,1.73
2023-08-27T00:59:35.257Z,1.45
2023-08-27T01:02:03.743Z,1.27
2023-08-27T01:04:30.733Z,1.77
2023-08-27T01:07:07.229Z,2.05
2023-08-27T01:09:45.412Z,1.90
2023-08-27T01:12:34.352Z,1.88
2023-08-27T01:15:04.424Z,1.92
2023-08-27T01:17:33.610Z,1.80
2023-08-27T01:20:00.963Z,1.42
2023-08-27T01:22:29.678Z,1.83
2023-08-27T01:24:57.515Z,1.60
2023-08-27T01:27:54.582Z,1.70
2023-08-27T01:30:26.083Z,1.80
2023-08-27T01:33:04.618Z,2.03
2023-08-27T01:35:33.238Z,1.80
2023-08-27T01:38:00.520Z,1.73
2023-08-27T01:40:30.397Z,1.77
2023-08-27T01:42:57.953Z,1.85
2023-08-27T01:45:25.221Z,1.70
2023-08-27T01:47:52.223Z,2.28
2023-08-27T01:50:19.322Z,2.35
2023-08-27T01:52:46.328Z,1.95
2023-08-27T01:55:13.736Z,1.63
2023-08-27T01:57:41.158Z,2.40
2023-08-27T02:00:10.839Z,2.47
2023-08-27T02:02:45.098Z,2.20
2023-08-27T02:05:12.466Z,2.40
2023-08-27T02:07:41.053Z,2.42
2023-08-27T02:10:08.856Z,2.15
2023-08-27T02:12:36.546Z,2.72
2023-08-27T02:15:05.024Z,2.08
2023-08-27T02:17:32.840Z,2.15
2023-08-27T02:19:59.915Z,2.28
2023-08-27T02:22:26.844Z,1.90
2023-08-27T02:24:54.140Z,2.00
2023-08-27T02:27:21.153Z,2.22
2023-08-27T02:29:48.094Z,2.33
2023-08-27T02:32:14.982Z,2.28
2023-08-27T02:34:41.895Z,2.20
2023-08-27T02:37:08.787Z,1.90
2023-08-27T02:39:35.704Z,1.80
2023-08-27T02:42:03.864Z,2.15
2023-08-27T02:44:32.451Z,2.40
2023-08-27T02:46:59.395Z,2.53
2023-08-27T02:49:26.912Z,3.00
2023-08-27T02:51:55.399Z,2.88
2023-08-27T02:54:24.538Z,2.83
2023-08-27T02:56:51.685Z,3.33
2023-08-27T02:59:18.705Z,2.80
2023-08-27T03:01:45.725Z,3.58
2023-08-27T03:04:13.320Z,3.78
2023-08-27T03:06:40.234Z,3.25
2023-08-27T03:09:08.021Z,3.47
2023-08-27T03:11:34.964Z,3.20
2023-08-27T03:14:02.213Z,3.47
2023-08-27T03:16:30.763Z,3.58
2023-08-27T03:18:57.706Z,3.47
2023-08-27T03:21:24.608Z,3.35
2023-08-27T03:23:51.553Z,3.60
2023-08-27T03:26:18.547Z,3.63
2023-08-27T03:28:47.285Z,3.53
2023-08-27T03:31:15.114Z,3.28
2023-08-27T03:33:42.434Z,3.33
2023-08-27T03:36:09.539Z,3.65
2023-08-27T03:38:36.532Z,3.50
2023-08-27T03:41:03.492Z,3.40
2023-08-27T03:43:30.528Z,3.25
2023-08-27T03:45:57.553Z,3.58
2023-08-27T03:48:24.982Z,3.75
2023-08-27T03:50:53.295Z,3.70
2023-08-27T03:53:20.290Z,3.80
2023-08-27T03:55:47.597Z,3.55
2023-08-27T03:58:14.583Z,3.58
2023-08-27T04:00:41.820Z,3.05
2023-08-27T04:03:09.804Z,2.63
2023-08-27T04:05:38.883Z,3.17
2023-08-27T04:08:07.815Z,2.92
2023-08-27T04:10:34.801Z,3.10
2023-08-27T04:13:02.713Z,3.42
2023-08-27T04:15:32.321Z,3.05
2023-08-27T04:17:59.361Z,3.22
2023-08-27T04:20:26.426Z,3.58
2023-08-27T04:22:54.409Z,3.30
2023-08-27T04:25:25.095Z,4.10
2023-08-27T04:27:52.335Z,4.18
2023-08-27T04:30:19.455Z,3.20
2023-08-27T04:32:46.438Z,3.67
2023-08-27T04:35:13.515Z,3.70
2023-08-27T04:37:40.463Z,4.10
2023-08-27T04:40:08.264Z,3.50
2023-08-27T04:42:35.705Z,3.45
2023-08-27T04:45:02.680Z,3.55
2023-08-27T04:47:30.869Z,3.58
2023-08-27T04:50:02.242Z,3.40
2023-08-27T04:52:32.557Z,3.50
2023-08-27T04:55:00.284Z,3.25
2023-08-27T04:57:27.529Z,3.35
2023-08-27T04:59:57.423Z,3.45
2023-08-27T05:02:24.723Z,3.05
2023-08-27T05:04:52.224Z,2.92
2023-08-27T05:07:19.330Z,3.03
2023-08-27T05:09:47.858Z,2.92
2023-08-27T05:12:15.728Z,3.00
2023-08-27T05:14:45.181Z,3.25
2023-08-27T05:17:12.220Z,3.13
2023-08-27T05:19:39.611Z,3.13
2023-08-27T05:22:07.927Z,2.92
2023-08-27T05:24:36.103Z,3.25
2023-08-27T05:27:04.299Z,3.17
2023-08-27T05:29:31.282Z,3.10
2023-08-27T05:31:58.285Z,3.25
2023-08-27T05:34:25.584Z,3.75
2023-08-27T05:36:54.098Z,3.70
2023-08-27T05:39:21.308Z,3.20
2023-08-27T05:41:48.312Z,3.75
2023-08-27T05:44:16.548Z,3.38
2023-08-27T05:46:44.821Z,3.33
2023-08-27T05:49:13.151Z,3.20
2023-08-27T05:51:40.366Z,3.47
2023-08-27T05:54:07.385Z,3.53
2023-08-27T05:56:34.429Z,2.92
2023-08-27T05:59:01.423Z,2.90
2023-08-27T06:01:28.921Z,3.38
2023-08-27T06:03:57.173Z,3.05
2023-08-27T06:06:25.772Z,3.00
2023-08-27T06:08:52.869Z,3.13
2023-08-27T06:11:19.811Z,2.88
2023-08-27T06:13:46.800Z,3.40
2023-08-27T06:16:13.757Z,3.35
2023-08-27T06:18:40.846Z,3.42
2023-08-27T06:21:07.951Z,3.50
2023-08-27T06:23:35.590Z,3.75
2023-08-27T06:26:04.255Z,3.08
2023-08-27T06:28:31.806Z,2.90
2023-08-27T06:30:59.579Z,3.28
2023-08-27T06:33:27.245Z,3.00
2023-08-27T06:35:54.551Z,3.78
2023-08-27T06:38:21.777Z,2.78
2023-08-27T06:40:48.992Z,2.75
2023-08-27T06:43:15.962Z,2.63
2023-08-27T06:45:45.000Z,2.40
2023-08-27T06:48:12.252Z,2.72
2023-08-27T06:50:39.655Z,2.65
2023-08-27T06:53:06.771Z,2.70
2023-08-27T06:55:33.882Z,2.25
2023-08-27T06:58:01.772Z,2.00
2023-08-27T07:00:32.129Z,2.60
2023-08-27T07:02:59.688Z,2.45
2023-08-27T07:05:27.682Z,2.25
2023-08-27T07:07:54.811Z,2.00
2023-08-27T07:10:22.478Z,2.03
2023-08-27T07:12:49.508Z,2.60
2023-08-27T07:15:16.463Z,2.20
2023-08-27T07:17:45.017Z,1.95
2023-08-27T07:20:12.711Z,2.10
2023-08-27T07:22:39.948Z,2.55
2023-08-27T07:25:07.958Z,2.22
2023-08-27T07:27:37.726Z,1.85
2023-08-27T07:30:05.906Z,2.20
2023-08-27T07:32:34.222Z,2.05
2023-08-27T07:35:01.346Z,1.90
2023-08-27T07:37:33.817Z,2.97
2023-08-27T07:40:02.968Z,3.40
2023-08-27T07:42:29.934Z,2.05
2023-08-27T07:44:57.033Z,2.03
2023-08-27T07:47:24.307Z,2.00
2023-08-27T07:49:51.246Z,2.35
2023-08-27T07:52:18.395Z,2.60
2023-08-27T07:54:47.131Z,1.70
2023-08-27T07:57:14.158Z,1.80
2023-08-27T07:59:44.592Z,1.98
2023-08-27T08:02:11.703Z,2.00
2023-08-27T08:04:38.820Z,2.33
2023-08-27T08:07:05.701Z,1.58
2023-08-27T08:09:33.047Z,1.65
2023-08-27T08:12:00.022Z,1.65
2023-08-27T08:14:26.998Z,2.28
2023-08-27T08:16:54.433Z,1.30
2023-08-27T08:19:21.479Z,1.42
2023-08-27T08:21:48.431Z,1.48
2023-08-27T08:24:16.646Z,1.10
2023-08-27T08:26:44.017Z,1.40
2023-08-27T08:29:10.977Z,1.30
2023-08-27T08:31:38.593Z,1.30
2023-08-27T08:34:05.512Z,1.00
2023-08-27T08:36:34.190Z,1.42
2023-08-27T08:39:01.256Z,1.70
2023-08-27T08:41:29.232Z,0.93
2023-08-27T08:44:10.572Z,0.82
2023-08-27T08:46:38.772Z,1.58
2023-08-27T08:49:11.859Z,0.90
2023-08-27T08:51:39.710Z,1.20
2023-08-27T08:54:12.223Z,1.05
2023-08-27T08:56:47.524Z,1.52
2023-08-27T08:59:14.716Z,1.00
2023-08-27T09:01:43.375Z,1.70
2023-08-27T09:04:11.397Z,1.52
2023-08-27T09:06:40.003Z,1.30
2023-08-27T09:09:07.323Z,1.40
2023-08-27T09:11:37.424Z,1.25
2023-08-27T09:14:05.087Z,1.42
2023-08-27T09:16:32.182Z,1.50
2023-08-27T09:18:59.337Z,1.20
2023-08-27T09:21:26.307Z,1.80
2023-08-27T09:23:57.243Z,1.50
2023-08-27T09:26:24.312Z,1.63
2023-08-27T09:28:52.136Z,1.33
2023-08-27T09:31:42.058Z,1.58
2023-08-27T09:34:10.288Z,1.50
2023-08-27T09:36:39.195Z,1.10
2023-08-27T09:39:13.713Z,1.40
2023-08-27T09:41:45.462Z,1.13
2023-08-27T09:44:14.619Z,1.23
2023-08-27T09:46:43.598Z,1.15
2023-08-27T09:49:10.834Z,1.30
2023-08-27T09:51:40.476Z,1.15
2023-08-27T09:54:15.243Z,1.20
2023-08-27T09:56:47.078Z,1.27
2023-08-27T09:59:22.342Z,0.93
2023-08-27T10:01:51.931Z,0.95
2023-08-27T10:04:20.498Z,1.10
2023-08-27T10:06:49.441Z,0.90
2023-08-27T10:09:17.822Z,0.80
2023-08-27T10:11:46.677Z,0.77
2023-08-27T10:14:16.491Z,1.15
2023-08-27T10:16:44.297Z,1.20
2023-08-27T10:19:15.011Z,0.90
2023-08-27T10:21:42.343Z,0.95
2023-08-27T10:24:11.958Z,0.68
2023-08-27T10:26:43.526Z,1.00
2023-08-27T10:29:10.879Z,0.75
2023-08-27T10:31:38.740Z,1.13
2023-08-27T10:34:07.257Z,0.85
2023-08-27T10:36:38.876Z,0.77
2023-08-27T10:39:08.768Z,0.70
2023-08-27T10:41:36.554Z,1.00
2023-08-27T10:44:04.397Z,0.80
2023-08-27T10:46:32.860Z,0.75
2023-08-27T10:48:59.855Z,1.00
2023-08-27T10:51:33.048Z,1.02
2023-08-27T10:54:01.615Z,1.00
2023-08-27T10:56:28.492Z,1.15
2023-08-27T10:59:12.035Z,0.88
2023-08-27T11:01:55.090Z,1.58
2023-08-27T11:04:22.102Z,0.90
2023-08-27T11:06:50.498Z,1.05
2023-08-27T11:09:22.871Z,0.65
2023-08-27T11:12:26.046Z,0.70
2023-08-27T11:14:54.649Z,0.93
2023-08-27T11:17:30.870Z,0.85
2023-08-27T11:19:59.193Z,0.77
2023-08-27T11:22:26.690Z,0.80
2023-08-27T11:24:56.371Z,0.90
2023-08-27T11:27:25.208Z,1.00
2023-08-27T11:29:54.101Z,0.73
2023-08-27T11:32:25.303Z,0.63
2023-08-27T11:34:53.870Z,0.50
2023-08-27T11:37:30.941Z,1.00
2023-08-27T11:39:58.286Z,0.50
2023-08-27T11:42:25.407Z,1.40
2023-08-27T11:44:54.938Z,0.70
2023-08-27T11:47:25.369Z,0.98
2023-08-27T11:49:58.311Z,0.68
2023-08-27T11:52:27.997Z,0.60
2023-08-27T11:54:58.277Z,0.65
2023-08-27T11:57:27.373Z,0.85
2023-08-27T11:59:55.099Z,1.15
2023-08-27T12:02:22.309Z,1.23
2023-08-27T12:04:49.776Z,0.90
2023-08-27T12:07:29.780Z,1.40
2023-08-27T12:09:58.569Z,1.08
2023-08-27T12:12:29.786Z,1.20
2023-08-27T12:14:58.864Z,0.90
2023-08-27T12:17:34.491Z,0.80
2023-08-27T12:20:02.705Z,0.85
2023-08-27T12:22:29.852Z,0.52
2023-08-27T12:25:00.726Z,0.70
2023-08-27T12:27:29.010Z,0.90
2023-08-27T12:29:59.090Z,0.47
2023-08-27T12:32:34.105Z,0.50
2023-08-27T12:35:02.362Z,0.60
2023-08-27T12:37:29.449Z,0.40
2023-08-27T12:39:57.904Z,0.60
2023-08-27T12:42:26.669Z,0.70
2023-08-27T12:44:54.399Z,0.57
2023-08-27T12:47:21.505Z,0.60
2023-08-27T12:50:21.578Z,0.75
2023-08-27T12:52:49.033Z,0.60
2023-08-27T12:55:16.085Z,0.88
2023-08-27T12:57:43.168Z,0.60
2023-08-27T13:00:10.734Z,0.90
2023-08-27T13:02:37.763Z,0.82
2023-08-27T13:05:05.822Z,0.60
2023-08-27T13:07:33.625Z,0.60
2023-08-27T13:10:01.788Z,0.50
2023-08-27T13:12:28.750Z,0.40
2023-08-27T13:14:55.658Z,0.30
2023-08-27T13:17:23.165Z,0.30
2023-08-27T13:19:50.228Z,0.40
2023-08-27T13:22:17.331Z,0.47
2023-08-27T13:24:44.278Z,0.28
2023-08-27T13:27:13.748Z,0.50
2023-08-27T13:29:40.912Z,0.40
2023-08-27T13:32:08.042Z,0.40
2023-08-27T13:34:35.093Z,0.40
2023-08-27T13:37:02.208Z,0.60
2023-08-27T13:39:30.420Z,0.68
2023-08-27T13:42:03.330Z,1.00
2023-08-27T13:44:30.333Z,0.95
2023-08-27T13:46:57.296Z,1.00
2023-08-27T13:49:24.384Z,0.90
2023-08-27T13:51:51.642Z,1.00
2023-08-27T13:54:18.572Z,0.90
2023-08-27T13:56:45.719Z,0.90
2023-08-27T13:59:13.571Z,0.93
2023-08-27T14:01:42.997Z,0.90
2023-08-27T14:04:10.033Z,0.90
2023-08-27T14:06:37.165Z,0.70
2023-08-27T14:09:06.377Z,1.13
2023-08-27T14:11:36.987Z,0.98
2023-08-27T14:14:06.883Z,1.10
2023-08-27T14:16:33.806Z,0.80
2023-08-27T14:19:04.078Z,1.10
2023-08-27T14:21:31.043Z,1.00
2023-08-27T14:23:59.316Z,0.90
2023-08-27T14:26:26.659Z,1.00
2023-08-27T14:28:53.717Z,1.10
2023-08-27T14:31:20.912Z,1.05
2023-08-27T14:33:47.916Z,0.90
2023-08-27T14:36:15.653Z,0.90
2023-08-27T14:38:42.662Z,1.00
2023-08-27T14:41:10.129Z,0.90
2023-08-27T14:43:38.597Z,0.80
2023-08-27T14:46:08.132Z,0.68
2023-08-27T14:48:35.661Z,0.80
2023-08-27T14:51:02.885Z,0.70
2023-08-27T14:53:31.195Z,0.63
2023-08-27T14:55:59.173Z,0.50
2023-08-27T14:58:26.166Z,0.70
2023-08-27T15:00:55.728Z,0.50
2023-08-27T15:03:22.773Z,0.55
2023-08-27T15:05:49.955Z,0.50
2023-08-27T15:08:17.257Z,0.68
2023-08-27T15:10:44.200Z,0.60
2023-08-27T15:13:11.395Z,0.35
2023-08-27T15:15:38.755Z,0.60
2023-08-27T15:18:06.084Z,0.65
2023-08-27T15:20:33.111Z,0.60
2023-08-27T15:23:01.854Z,0.57
2023-08-27T15:25:28.775Z,0.50
2023-08-27T15:27:55.811Z,0.30
2023-08-27T15:30:23.183Z,0.90
2023-08-27T15:32:50.333Z,0.63
2023-08-27T15:35:19.470Z,0.65
2023-08-27T15:37:48.177Z,0.70
2023-08-27T15:40:18.579Z,0.73
2023-08-27T15:42:46.288Z,0.60
2023-08-27T15:45:13.299Z,0.50
2023-08-27T15:47:40.549Z,0.80
2023-08-27T15:50:07.912Z,0.40
2023-08-27T15:52:34.901Z,0.77
2023-08-27T15:55:02.539Z,0.70
2023-08-27T15:57:30.157Z,0.55
2023-08-27T15:59:57.225Z,0.90
2023-08-27T16:02:24.287Z,0.85
2023-08-27T16:04:52.059Z,0.52
2023-08-27T16:07:19.458Z,0.60
2023-08-27T16:09:48.329Z,0.60
2023-08-27T16:12:17.474Z,0.60
2023-08-27T16:14:44.518Z,0.90
2023-08-27T16:17:12.823Z,1.67
2023-08-27T16:19:39.871Z,0.70
2023-08-27T16:22:07.916Z,0.70
2023-08-27T16:24:34.977Z,0.57
2023-08-27T16:27:03.944Z,0.63
2023-08-27T16:29:30.947Z,0.47
2023-08-27T16:31:57.965Z,0.50
2023-08-27T16:34:25.264Z,0.50
2023-08-27T16:36:52.334Z,0.70
2023-08-27T16:39:19.566Z,0.60
2023-08-27T16:41:46.629Z,0.57
2023-08-27T16:44:13.560Z,0.60
2023-08-27T16:46:41.792Z,0.57
2023-08-27T16:49:08.768Z,0.50
2023-08-27T16:51:37.280Z,0.40
2023-08-27T16:54:05.083Z,0.35
2023-08-27T16:56:32.281Z,0.32
2023-08-27T16:58:59.352Z,0.40
2023-08-27T17:01:26.462Z,0.30
2023-08-27T17:03:54.463Z,0.60
2023-08-27T17:06:21.506Z,0.30
2023-08-27T17:08:48.621Z,0.30
2023-08-27T17:11:17.554Z,0.40
2023-08-27T17:13:45.981Z,0.50
2023-08-27T17:16:13.097Z,0.57
2023-08-27T17:18:40.649Z,0.30
2023-08-27T17:21:08.401Z,0.40
2023-08-27T17:23:35.427Z,0.30
2023-08-27T17:26:02.602Z,0.50
2023-08-27T17:28:29.882Z,0.68
2023-08-27T17:31:01.719Z,0.47
2023-08-27T17:33:30.718Z,0.50
2023-08-27T17:35:57.864Z,0.40
2023-08-27T17:38:25.070Z,0.77
2023-08-27T17:40:53.909Z,0.40
2023-08-27T17:43:21.664Z,0.38
2023-08-27T17:45:48.842Z,0.47
2023-08-27T17:48:15.999Z,0.50
2023-08-27T17:50:46.800Z,0.32
2023-08-27T17:53:13.907Z,0.47
2023-08-27T17:55:41.018Z,0.35
2023-08-27T17:58:07.933Z,0.43
2023-08-27T18:00:34.883Z,0.47
2023-08-27T18:03:02.927Z,0.45
2023-08-27T18:05:30.293Z,0.60
2023-08-27T18:07:59.628Z,0.50
2023-08-27T18:10:26.870Z,0.50
2023-08-27T18:12:53.923Z,0.60
2023-08-27T18:15:20.984Z,0.50
2023-08-27T18:17:48.262Z,0.70
2023-08-27T18:20:15.383Z,0.70
2023-08-27T18:22:42.543Z,0.80
2023-08-27T18:25:10.223Z,0.60
2023-08-27T18:27:37.187Z,0.65
2023-08-27T18:30:05.199Z,0.77
2023-08-27T18:32:32.180Z,0.80
2023-08-27T18:34:59.524Z,0.60
2023-08-27T18:37:27.768Z,0.50
2023-08-27T18:39:54.862Z,0.50
2023-08-27T18:42:32.874Z,0.70
2023-08-27T18:45:01.689Z,0.70
2023-08-27T18:47:28.878Z,0.60
2023-08-27T18:49:56.019Z,0.55
2023-08-27T18:52:24.145Z,0.55
2023-08-27T18:54:52.206Z,0.45
2023-08-27T18:57:19.264Z,0.80
2023-08-27T18:59:46.219Z,0.95
2023-08-27T19:02:13.621Z,0.85
2023-08-27T19:04:41.340Z,0.75
2023-08-27T19:07:08.332Z,1.05
2023-08-27T19:09:37.024Z,1.00
2023-08-27T19:12:04.327Z,1.40
2023-08-27T19:14:33.712Z,1.10
2023-08-27T19:17:00.753Z,1.00
2023-08-27T19:19:28.121Z,1.00
2023-08-27T19:21:55.310Z,1.00
2023-08-27T19:24:22.591Z,0.93
2023-08-27T19:26:49.582Z,1.10
2023-08-27T19:29:16.684Z,1.23
2023-08-27T19:31:47.376Z,1.13
2023-08-27T19:34:15.333Z,1.17
2023-08-27T19:36:43.510Z,1.52
2023-08-27T19:39:13.330Z,1.30
2023-08-27T19:41:40.594Z,1.33
2023-08-27T19:44:07.577Z,1.63
2023-08-27T19:46:36.253Z,1.42
2023-08-27T19:49:03.926Z,1.38
2023-08-27T19:51:32.748Z,1.17
2023-08-27T19:53:59.656Z,1.30
2023-08-27T19:56:26.635Z,1.00
2023-08-27T19:58:53.544Z,1.45
2023-08-27T20:01:20.656Z,0.90
2023-08-27T20:03:47.635Z,1.20
2023-08-27T20:06:14.505Z,1.00
2023-08-27T20:08:41.890Z,1.00
2023-08-27T20:11:09.120Z,0.95
2023-08-27T20:13:36.045Z,0.82
2023-08-27T20:16:03.345Z,0.80
2023-08-27T20:18:30.355Z,1.02
2023-08-27T20:20:57.348Z,0.70
2023-08-27T20:23:24.388Z,1.00
2023-08-27T20:25:52.236Z,1.05
2023-08-27T20:28:19.500Z,1.00
2023-08-27T20:30:50.181Z,1.05
2023-08-27T20:33:17.325Z,0.88
2023-08-27T20:35:45.703Z,0.85
2023-08-27T20:38:12.658Z,0.90
2023-08-27T20:40:40.172Z,0.80
2023-08-27T20:43:07.594Z,0.88
2023-08-27T20:45:37.564Z,0.68
2023-08-27T20:48:04.866Z,0.90
2023-08-27T20:50:31.892Z,0.82
2023-08-27T20:52:59.184Z,0.88
2023-08-27T20:55:26.398Z,0.77
2023-08-27T20:57:53.499Z,0.93
2023-08-27T21:00:20.576Z,0.70
2023-08-27T21:02:47.554Z,0.70
2023-08-27T21:05:16.232Z,1.23
2023-08-27T21:07:43.520Z,0.80
2023-08-27T21:10:11.770Z,0.80
2023-08-27T21:12:39.246Z,1.02
2023-08-27T21:15:06.743Z,0.90
2023-08-27T21:17:33.812Z,0.80
2023-08-27T21:20:00.832Z,0.90
2023-08-27T21:22:28.346Z,1.00
2023-08-27T21:24:55.280Z,1.00
2023-08-27T21:27:22.264Z,0.80
2023-08-27T21:29:51.530Z,0.73
2023-08-27T21:32:18.564Z,0.80
2023-08-27T21:34:45.455Z,0.88
2023-08-27T21:37:14.884Z,0.80
2023-08-27T21:39:42.806Z,1.00
2023-08-27T21:42:09.678Z,0.80
2023-08-27T21:44:37.126Z,1.10
2023-08-27T21:47:04.187Z,0.95
2023-08-27T21:49:31.188Z,1.10
2023-08-27T21:51:58.189Z,0.95
2023-08-27T21:54:25.078Z,1.00
2023-08-27T21:56:52.049Z,0.98
2023-08-27T21:59:19.077Z,0.93
2023-08-27T22:01:46.155Z,1.30
2023-08-27T22:04:13.970Z,1.20
2023-08-27T22:06:40.948Z,0.70
2023-08-27T22:09:07.894Z,0.80
2023-08-27T22:11:34.801Z,0.90
2023-08-27T22:14:01.789Z,1.02
2023-08-27T22:16:29.373Z,1.00
2023-08-27T22:18:58.554Z,1.02
2023-08-27T22:21:29.057Z,0.85
2023-08-27T22:23:57.284Z,0.80
2023-08-27T22:26:24.282Z,1.00
2023-08-27T22:28:51.217Z,1.10
2023-08-27T22:31:18.335Z,1.10
2023-08-27T22:33:45.359Z,1.05
2023-08-27T22:36:12.351Z,1.02
2023-08-27T22:38:39.919Z,1.15
2023-08-27T22:41:06.872Z,1.20
2023-08-27T22:43:33.837Z,0.98
2023-08-27T22:46:02.532Z,1.20
2023-08-27T22:48:29.833Z,1.40
2023-08-27T22:50:57.044Z,1.30
2023-08-27T22:53:24.139Z,1.23
2023-08-27T22:55:51.119Z,1.30
2023-08-27T22:58:18.116Z,1.25
2023-08-27T23:00:45.104Z,1.35
2023-08-27T23:03:12.227Z,1.20
2023-08-27T23:05:39.221Z,1.20
2023-08-27T23:08:07.731Z,1.38
2023-08-27T23:10:34.641Z,1.75
2023-08-27T23:13:01.889Z,1.27
2023-08-27T23:15:31.733Z,1.20
2023-08-27T23:17:58.806Z,1.00
2023-08-27T23:20:26.135Z,1.20
2023-08-27T23:22:53.158Z,1.13
2023-08-27T23:25:20.166Z,1.13
2023-08-27T23:27:47.097Z,1.10
2023-08-27T23:30:15.195Z,1.20
2023-08-27T23:32:42.160Z,1.23
2023-08-27T23:35:10.820Z,1.13
2023-08-27T23:37:37.878Z,1.00
2023-08-27T23:40:07.591Z,1.00
2023-08-27T23:42:34.640Z,0.95
2023-08-27T23:45:01.942Z,0.98
2023-08-27T23:47:29.544Z,1.10
2023-08-27T23:49:56.505Z,1.20
2023-08-27T23:52:23.423Z,1.13
2023-08-27T23:54:51.103Z,0.90
2023-08-27T23:57:18.225Z,1.38
2023-08-27T23:59:45.190Z,1.30
